createdAt,value
2023-04-27T00:01:31.436Z,1308
2023-04-27T00:06:49.948Z,1339
2023-04-27T00:12:08.148Z,1369
2023-04-27T00:17:26.503Z,1398
2023-04-27T00:22:44.960Z,1415
2023-04-27T00:28:03.260Z,1438
2023-04-27T00:33:21.840Z,1453
2023-04-27T00:38:40.280Z,1465
2023-04-27T00:43:42.610Z,1481
2023-04-27T00:49:00.545Z,1496
2023-04-27T00:54:18.823Z,1497
2023-04-27T00:59:37.009Z,1503
2023-04-27T01:04:55.429Z,1504
2023-04-27T01:10:13.846Z,1503
2023-04-27T01:15:32.230Z,1508
2023-04-27T01:20:50.374Z,1512
2023-04-27T01:26:08.642Z,1511
2023-04-27T01:31:27.262Z,1515
2023-04-27T01:36:45.353Z,1512
2023-04-27T01:42:04.048Z,1526
2023-04-27T01:47:22.632Z,1516
2023-04-27T01:52:41.136Z,1521
2023-04-27T01:57:59.369Z,1525
2023-04-27T02:03:17.821Z,1527
2023-04-27T02:08:37.114Z,1520
2023-04-27T02:13:55.444Z,1510
2023-04-27T02:19:13.663Z,1498
2023-04-27T02:24:32.665Z,1489
2023-04-27T02:29:50.905Z,1487
2023-04-27T02:35:10.505Z,1480
2023-04-27T02:40:28.819Z,1464
2023-04-27T02:45:47.061Z,1459
2023-04-27T02:51:05.624Z,1483
2023-04-27T02:56:24.032Z,1463
2023-04-27T03:01:43.532Z,1460
2023-04-27T03:07:02.057Z,1459
2023-04-27T03:12:20.418Z,1457
2023-04-27T03:17:38.791Z,1450
2023-04-27T03:22:57.383Z,1455
2023-04-27T03:28:15.930Z,1457
2023-04-27T03:33:34.687Z,1470
2023-04-27T03:38:53.432Z,1425
2023-04-27T03:44:11.782Z,1431
2023-04-27T03:49:29.817Z,1417
2023-04-27T03:54:48.363Z,1392
2023-04-27T04:00:06.725Z,1383
2023-04-27T04:05:25.397Z,1368
2023-04-27T04:10:43.963Z,1351
2023-04-27T04:16:02.605Z,1343
2023-04-27T04:21:21.171Z,1332
2023-04-27T04:26:39.353Z,1327
2023-04-27T04:31:58.038Z,1313
2023-04-27T04:37:16.404Z,1296
2023-04-27T04:42:34.872Z,1298
2023-04-27T04:47:53.243Z,935
2023-04-27T04:53:11.652Z,935
2023-04-27T04:58:29.656Z,874
2023-04-27T05:03:48.044Z,917
2023-04-27T05:09:07.185Z,944
2023-04-27T05:14:25.502Z,964
2023-04-27T05:19:43.926Z,968
2023-04-27T05:25:02.324Z,979
2023-04-27T05:30:20.255Z,980
2023-04-27T05:35:23.241Z,981
2023-04-27T05:40:41.901Z,981
2023-04-27T05:46:00.432Z,984
2023-04-27T05:51:18.920Z,984
2023-04-27T05:56:37.485Z,980
2023-04-27T06:01:55.664Z,973
2023-04-27T06:07:14.170Z,973
2023-04-27T06:12:34.215Z,969
2023-04-27T06:17:52.791Z,957
2023-04-27T06:23:11.171Z,955
2023-04-27T06:28:31.259Z,949
2023-04-27T06:33:49.648Z,948
2023-04-27T06:39:08.198Z,940
2023-04-27T06:44:26.216Z,932
2023-04-27T06:49:44.658Z,916
2023-04-27T06:55:02.993Z,902
2023-04-27T07:00:21.457Z,899
2023-04-27T07:05:39.695Z,893
2023-04-27T07:10:58.396Z,887
2023-04-27T07:16:16.839Z,871
2023-04-27T07:21:35.411Z,863
2023-04-27T07:26:53.948Z,861
2023-04-27T07:32:12.437Z,860
2023-04-27T07:37:30.795Z,847
2023-04-27T07:42:49.150Z,834
2023-04-27T07:48:07.590Z,830
2023-04-27T07:53:26.313Z,833
2023-04-27T07:58:44.487Z,831
2023-04-27T08:04:03.019Z,838
2023-04-27T08:09:22.412Z,834
2023-04-27T08:14:40.633Z,831
2023-04-27T08:19:59.060Z,825
2023-04-27T08:25:17.316Z,826
2023-04-27T08:30:35.715Z,830
2023-04-27T08:35:53.885Z,825
2023-04-27T08:41:21.161Z,820
2023-04-27T08:46:40.507Z,810
2023-04-27T08:51:59.061Z,795
2023-04-27T08:57:17.431Z,794
2023-04-27T09:02:35.726Z,789
2023-04-27T09:07:54.785Z,784
2023-04-27T09:13:13.273Z,786
2023-04-27T09:18:15.967Z,793
2023-04-27T09:23:34.201Z,790
2023-04-27T09:28:52.351Z,796
2023-04-27T09:34:11.161Z,788
2023-04-27T09:39:29.693Z,784
2023-04-27T09:44:48.291Z,783
2023-04-27T09:50:06.921Z,779
2023-04-27T09:55:25.705Z,774
2023-04-27T10:00:44.102Z,767
2023-04-27T10:06:02.299Z,765
2023-04-27T10:11:20.359Z,758
2023-04-27T10:16:38.790Z,750
2023-04-27T10:21:57.258Z,752
2023-04-27T10:27:15.911Z,750
2023-04-27T10:32:34.435Z,745
2023-04-27T10:37:53.093Z,738
2023-04-27T10:43:11.573Z,734
2023-04-27T10:48:29.595Z,730
2023-04-27T10:53:47.749Z,728
2023-04-27T10:59:06.228Z,725
2023-04-27T11:04:24.415Z,719
2023-04-27T11:09:42.815Z,718
2023-04-27T11:15:01.205Z,716
2023-04-27T11:20:19.530Z,714
2023-04-27T11:25:37.679Z,709
2023-04-27T11:30:55.976Z,705
2023-04-27T11:36:14.690Z,701
2023-04-27T11:41:33.192Z,701
2023-04-27T11:46:51.551Z,696
2023-04-27T11:52:10.055Z,691
2023-04-27T11:57:28.660Z,688
2023-04-27T12:02:47.055Z,687
2023-04-27T12:08:05.840Z,685
2023-04-27T12:13:23.997Z,680
2023-04-27T12:18:42.470Z,684
2023-04-27T12:24:00.673Z,689
2023-04-27T12:29:18.852Z,683
2023-04-27T12:34:37.106Z,685
2023-04-27T12:39:55.438Z,680
2023-04-27T12:45:13.812Z,675
2023-04-27T12:50:32.435Z,674
2023-04-27T12:55:51.087Z,673
2023-04-27T13:01:09.112Z,671
2023-04-27T13:06:27.401Z,662
2023-04-27T13:11:45.752Z,669
2023-04-27T13:17:04.331Z,659
2023-04-27T13:22:22.826Z,656
2023-04-27T13:27:41.019Z,657
2023-04-27T13:33:07.445Z,651
2023-04-27T13:38:41.588Z,654
2023-04-27T13:44:00.204Z,648
2023-04-27T13:49:19.369Z,650
2023-04-27T13:54:37.834Z,649
2023-04-27T13:59:56.202Z,656
2023-04-27T14:05:14.784Z,699
2023-04-27T14:10:33.442Z,696
2023-04-27T14:15:51.633Z,710
2023-04-27T14:21:10.096Z,717
2023-04-27T14:26:28.543Z,718
2023-04-27T14:31:46.695Z,716
2023-04-27T14:37:08.086Z,714
2023-04-27T14:42:26.465Z,719
2023-04-27T14:47:44.837Z,727
2023-04-27T14:53:02.903Z,723
2023-04-27T14:58:21.321Z,722
2023-04-27T15:03:39.385Z,716
2023-04-27T15:08:58.146Z,727
2023-04-27T15:14:16.720Z,753
2023-04-27T15:19:19.504Z,781
2023-04-27T15:24:22.009Z,809
2023-04-27T15:29:30.330Z,819
2023-04-27T15:34:48.537Z,814
2023-04-27T15:40:07.140Z,800
2023-04-27T15:45:25.571Z,802
2023-04-27T15:50:44.233Z,803
2023-04-27T15:56:02.409Z,790
2023-04-27T16:01:20.914Z,781
2023-04-27T16:06:39.548Z,770
2023-04-27T16:11:58.030Z,768
2023-04-27T16:17:16.419Z,769
2023-04-27T16:22:34.951Z,766
2023-04-27T16:27:53.512Z,759
2023-04-27T16:33:11.913Z,811
2023-04-27T16:38:30.465Z,805
2023-04-27T16:43:49.014Z,793
2023-04-27T16:49:07.551Z,772
2023-04-27T16:54:26.048Z,778
2023-04-27T16:59:44.645Z,731
2023-04-27T17:05:02.897Z,694
2023-04-27T17:10:21.367Z,642
2023-04-27T17:15:41.060Z,613
2023-04-27T17:20:59.345Z,602
2023-04-27T17:26:17.709Z,580
2023-04-27T17:31:36.045Z,586
2023-04-27T17:36:54.637Z,571
2023-04-27T17:42:12.897Z,558
2023-04-27T17:47:31.448Z,548
2023-04-27T17:52:50.157Z,559
2023-04-27T17:58:08.496Z,603
2023-04-27T18:03:11.448Z,617
2023-04-27T18:08:31.191Z,623
2023-04-27T18:13:49.301Z,632
2023-04-27T18:19:07.854Z,640
2023-04-27T18:24:26.440Z,648
2023-04-27T18:29:45.018Z,656
2023-04-27T18:35:06.017Z,662
2023-04-27T18:40:24.714Z,672
2023-04-27T18:45:43.144Z,680
2023-04-27T18:51:01.633Z,692
2023-04-27T18:56:20.653Z,700
2023-04-27T19:01:40.144Z,705
2023-04-27T19:07:01.296Z,727
2023-04-27T19:12:19.972Z,762
2023-04-27T19:17:39.423Z,792
2023-04-27T19:22:57.646Z,829
2023-04-27T19:28:16.437Z,840
2023-04-27T19:33:34.464Z,846
2023-04-27T19:38:53.089Z,849
2023-04-27T19:44:11.388Z,859
2023-04-27T19:49:30.620Z,881
2023-04-27T19:54:48.930Z,889
2023-04-27T20:00:07.342Z,910
2023-04-27T20:05:25.786Z,918
2023-04-27T20:10:44.861Z,944
2023-04-27T20:16:02.886Z,973
2023-04-27T20:21:21.057Z,989
2023-04-27T20:26:39.234Z,1022
2023-04-27T20:31:57.761Z,1037
2023-04-27T20:37:16.043Z,1058
2023-04-27T20:42:34.400Z,1068
2023-04-27T20:47:52.562Z,1075
2023-04-27T20:53:10.667Z,1104
2023-04-27T20:58:28.991Z,1134
2023-04-27T21:03:47.452Z,1145
2023-04-27T21:09:06.238Z,1168
2023-04-27T21:14:24.777Z,1199
2023-04-27T21:19:43.546Z,1231
2023-04-27T21:25:01.889Z,1238
2023-04-27T21:30:20.091Z,1243
2023-04-27T21:35:38.130Z,1253
2023-04-27T21:40:56.275Z,1264
2023-04-27T21:46:14.870Z,1270
2023-04-27T21:51:33.144Z,1276
2023-04-27T21:56:51.081Z,1278
2023-04-27T22:02:09.560Z,1285
2023-04-27T22:07:27.871Z,1295
2023-04-27T22:12:46.387Z,1311
2023-04-27T22:18:04.405Z,1301
2023-04-27T22:23:23.213Z,1308
2023-04-27T22:28:41.585Z,1321
2023-04-27T22:33:59.720Z,1364
2023-04-27T22:39:18.417Z,1394
2023-04-27T22:44:36.940Z,1438
2023-04-27T22:49:55.467Z,1467
2023-04-27T22:55:13.699Z,1486
2023-04-27T23:00:32.052Z,1511
2023-04-27T23:05:50.638Z,1522
2023-04-27T23:11:09.237Z,1532
2023-04-27T23:16:27.590Z,1543
2023-04-27T23:21:45.732Z,1544
2023-04-27T23:27:04.280Z,1555
2023-04-27T23:32:22.682Z,1552
2023-04-27T23:37:41.282Z,1565
2023-04-27T23:42:59.653Z,1571
2023-04-27T23:48:17.837Z,1572
2023-04-27T23:53:35.999Z,1569
2023-04-27T23:58:54.424Z,1558
